Time;durP1;ratioP1;P1;durP2;ratioP2;P2;SDS_P1;SDS_P2;PMS_P1;PMS_P2;Temp;Humidity;BMP_temperature;BMP_pressure;BME280_temperature;BME280_humidity;BME280_pressure;Samples;Min_cycle;Max_cycle;Signal;HPM_P1;HPM_P2
2022/11/28 00:01:24;;;;;;;46.20;24.80;;;;;;;1.81;94.49;99258.57;102731;1305;138279;-75
2022/11/28 00:03:51;;;;;;;46.90;25.60;;;;;;;1.82;94.26;99255.40;103020;1287;23924;-76
2022/11/28 00:06:19;;;;;;;45.40;26.10;;;;;;;1.84;94.41;99248.33;102881;1313;138293;-76
2022/11/28 00:08:46;;;;;;;51.00;25.20;;;;;;;1.86;94.32;99240.09;103212;1289;22545;-75
2022/11/28 00:11:14;;;;;;;49.50;26.00;;;;;;;1.86;94.13;99239.39;103090;1287;25120;-75
2022/11/28 00:13:42;;;;;;;52.10;25.90;;;;;;;1.85;94.06;99235.36;103258;1294;138547;-76
2022/11/28 00:16:17;;;;;;;50.00;27.20;;;;;;;1.84;93.90;99236.56;103441;1304;23364;-75
2022/11/28 00:18:44;;;;;;;45.20;24.40;;;;;;;1.84;94.08;99238.92;102964;1289;139117;-75
2022/11/28 00:21:12;;;;;;;44.70;24.60;;;;;;;1.84;93.95;99243.77;103330;1289;24421;-76
2022/11/28 00:23:41;;;;;;;48.90;26.20;;;;;;;1.85;94.11;99251.77;103114;1289;138255;-76
2022/11/28 00:26:13;;;;;;;47.00;24.90;;;;;;;1.87;94.31;99247.81;103133;1313;22483;-76
2022/11/28 00:28:40;;;;;;;46.50;24.10;;;;;;;1.88;94.13;99249.84;102917;1297;23047;-75
2022/11/28 00:31:13;;;;;;;45.80;23.60;;;;;;;1.88;94.00;99252.89;102895;1298;138147;-76
2022/11/28 00:33:40;;;;;;;43.90;22.70;;;;;;;1.88;93.92;99254.73;103180;1298;23815;-76
2022/11/28 00:36:09;;;;;;;41.90;23.00;;;;;;;1.87;93.77;99250.91;103018;1285;138410;-76
2022/11/28 00:38:36;;;;;;;41.40;22.00;;;;;;;1.85;93.63;99247.55;103151;1312;24342;-76
2022/11/28 00:41:06;;;;;;;38.50;21.00;;;;;;;1.85;93.35;99247.95;103087;1312;25411;-75
2022/11/28 00:43:33;;;;;;;38.00;20.40;;;;;;;1.82;93.16;99252.36;103067;1304;138132;-75
2022/11/28 00:46:01;;;;;;;41.40;22.60;;;;;;;1.80;93.49;99249.88;102981;1288;24487;-75
2022/11/28 00:48:29;;;;;;;41.90;21.80;;;;;;;1.79;93.55;99249.61;103071;1284;138157;-75
2022/11/28 00:51:14;;;;;;;41.10;20.50;;;;;;;1.78;93.55;99252.19;103180;1289;25593;-75
2022/11/28 00:53:43;;;;;;;43.50;21.40;;;;;;;1.76;93.55;99252.46;102911;1304;138285;-76
2022/11/28 00:56:12;;;;;;;41.80;21.60;;;;;;;1.76;93.54;99251.09;103207;1311;22481;-76
2022/11/28 00:58:40;;;;;;;41.30;21.20;;;;;;;1.75;93.47;99249.39;103103;1288;22499;-75
2022/11/28 01:01:10;;;;;;;38.70;21.00;;;;;;;1.75;93.53;99251.23;103049;1310;138032;-76
2022/11/28 01:03:38;;;;;;;39.30;20.20;;;;;;;1.74;93.49;99249.48;103158;1311;24434;-76
2022/11/28 01:06:06;;;;;;;42.50;21.60;;;;;;;1.75;93.63;99246.12;102944;1311;139011;-75
2022/11/28 01:08:34;;;;;;;39.90;22.70;;;;;;;1.76;93.70;99237.80;103265;1295;22472;-75
2022/11/28 01:11:01;;;;;;;42.60;22.40;;;;;;;1.78;93.37;99232.80;103175;1305;22482;-76
2022/11/28 01:13:28;;;;;;;37.50;21.60;;;;;;;1.77;93.44;99224.98;103197;1310;138094;-76
2022/11/28 01:15:57;;;;;;;39.00;21.60;;;;;;;1.77;93.52;99224.06;103552;1295;22554;-75
2022/11/28 01:18:24;;;;;;;40.50;21.00;;;;;;;1.77;93.55;99225.17;103202;1310;138065;-76
2022/11/28 01:20:51;;;;;;;39.00;20.70;;;;;;;1.75;93.22;99222.85;102975;1313;22497;-76
2022/11/28 01:23:18;;;;;;;42.50;22.10;;;;;;;1.73;93.19;99218.60;103395;1313;24258;-76
2022/11/28 01:25:45;;;;;;;36.80;19.90;;;;;;;1.72;93.20;99216.25;103089;1302;138108;-76
2022/11/28 01:28:12;;;;;;;41.30;20.00;;;;;;;1.70;93.11;99208.16;103340;1310;22533;-76
2022/11/28 01:30:39;;;;;;;40.00;20.80;;;;;;;1.68;93.20;99205.34;102919;1310;138687;-76
2022/11/28 01:33:05;;;;;;;41.90;20.40;;;;;;;1.66;93.15;99200.51;103079;1301;22913;-75
2022/11/28 01:35:32;;;;;;;34.60;20.10;;;;;;;1.66;93.22;99198.80;103109;1286;25449;-75
2022/11/28 01:37:59;;;;;;;36.80;19.60;;;;;;;1.64;93.21;99190.05;103078;1301;25283;-76
2022/11/28 01:40:26;;;;;;;34.50;18.40;;;;;;;1.64;93.21;99186.98;103341;1302;22531;-76
2022/11/28 01:42:56;;;;;;;37.80;19.80;;;;;;;1.63;93.07;99184.65;103015;1302;138122;-75
2022/11/28 01:45:29;;;;;;;42.90;22.00;;;;;;;1.62;93.11;99184.21;103067;1303;25205;-75
2022/11/28 01:48:02;;;;;;;40.20;20.40;;;;;;;1.61;93.20;99181.09;103225;1289;139299;-76
2022/11/28 01:50:31;;;;;;;42.50;20.30;;;;;;;1.61;93.27;99177.02;103086;1310;22577;-75
2022/11/28 01:53:03;;;;;;;37.80;19.60;;;;;;;1.60;93.17;99172.77;103214;1300;22480;-75
2022/11/28 01:55:34;;;;;;;34.50;19.10;;;;;;;1.58;93.07;99168.52;102989;1310;138138;-75
2022/11/28 01:58:01;;;;;;;35.30;20.20;;;;;;;1.56;92.88;99160.73;103352;1310;22494;-75
2022/11/28 02:00:28;;;;;;;37.20;19.30;;;;;;;1.55;93.12;99157.81;103236;1295;138089;-75
2022/11/28 02:03:20;;;;;;;39.20;19.20;;;;;;;1.54;93.28;99153.25;103188;1312;22610;-75
2022/11/28 02:05:50;;;;;;;37.00;19.90;;;;;;;1.54;93.20;99149.89;103024;1311;138340;-75
2022/11/28 02:08:17;;;;;;;42.40;21.40;;;;;;;1.51;92.87;99145.70;103283;1298;24275;-75
2022/11/28 02:11:13;;;;;;;42.40;21.10;;;;;;;1.50;93.20;99149.35;103353;1310;25375;-75
2022/11/28 02:14:31;;;;;;;43.90;22.30;;;;;;;1.49;93.12;99144.30;103407;1305;138078;-75
2022/11/28 02:17:04;;;;;;;43.30;21.50;;;;;;;1.48;93.12;99138.89;102379;1303;25475;-75
2022/11/28 02:20:15;;;;;;;42.90;22.00;;;;;;;1.46;93.20;99141.88;102356;1316;138923;-75
2022/11/28 02:23:08;;;;;;;44.00;21.80;;;;;;;1.46;93.25;99139.63;102854;1301;24241;-76
2022/11/28 02:25:44;;;;;;;42.30;23.80;;;;;;;1.45;93.19;99138.80;102429;1316;138193;-75
2022/11/28 02:28:39;;;;;;;45.10;22.10;;;;;;;1.43;93.25;99140.17;102823;1308;25463;-75
2022/11/28 02:31:21;;;;;;;44.00;22.60;;;;;;;1.42;93.54;99138.67;102328;1292;138128;-76
2022/11/28 02:33:54;;;;;;;42.60;22.40;;;;;;;1.42;93.63;99138.98;102476;1317;23305;-75
2022/11/28 02:36:49;;;;;;;40.90;22.60;;;;;;;1.42;93.75;99133.77;102526;1293;140718;-75
2022/11/28 02:39:29;;;;;;;41.40;22.30;;;;;;;1.44;93.81;99135.78;102677;1301;22492;-76
2022/11/28 02:42:04;;;;;;;41.40;22.20;;;;;;;1.43;93.83;99132.59;102364;1308;138668;-75
2022/11/28 02:45:01;;;;;;;42.20;21.60;;;;;;;1.44;93.79;99133.70;102681;1308;22415;-75
2022/11/28 02:47:35;;;;;;;42.40;22.60;;;;;;;1.45;93.97;99127.59;103075;1292;25244;-76
2022/11/28 02:50:11;;;;;;;46.20;21.80;;;;;;;1.45;93.72;99130.76;102355;1294;137965;-75
2022/11/28 02:52:44;;;;;;;45.40;23.30;;;;;;;1.44;93.79;99129.59;102828;1294;22531;-76
2022/11/28 02:55:13;;;;;;;43.30;24.30;;;;;;;1.43;93.57;99124.94;103162;1294;139464;-75
2022/11/28 02:57:51;;;;;;;48.70;23.70;;;;;;;1.42;93.81;99124.31;101717;1295;2106641;-75
2022/11/28 03:00:26;;;;;;;44.40;21.20;;;;;;;1.41;93.65;99119.08;103001;1302;138656;-75
2022/11/28 03:03:18;;;;;;;47.10;23.70;;;;;;;1.39;93.68;99118.74;103170;1305;24437;-75
2022/11/28 03:06:30;;;;;;;43.20;21.90;;;;;;;1.37;93.80;99111.77;103132;1310;138379;-75
2022/11/28 03:09:15;;;;;;;49.40;22.90;;;;;;;1.38;94.15;99112.54;102491;1304;23925;-75
2022/11/28 03:12:17;;;;;;;43.40;22.60;;;;;;;1.42;94.22;99112.33;102815;1310;138269;-75
2022/11/28 03:14:50;;;;;;;45.60;22.40;;;;;;;1.42;94.15;99108.25;103030;1301;22480;-75
2022/11/28 03:17:25;;;;;;;41.20;23.20;;;;;;;1.42;94.11;99107.54;103028;1316;22537;-75
2022/11/28 03:20:11;;;;;;;42.90;21.90;;;;;;;1.42;94.06;99103.17;102693;1296;139826;-76
2022/11/28 03:22:38;;;;;;;48.10;24.30;;;;;;;1.42;94.06;99102.98;102483;1317;22924;-75
2022/11/28 03:25:33;;;;;;;47.30;22.80;;;;;;;1.43;94.21;99105.05;102255;1295;140520;-76
2022/11/28 03:28:26;;;;;;;39.10;21.10;;;;;;;1.42;93.92;99100.87;102484;1295;22482;-75
2022/11/28 03:31:05;;;;;;;43.20;22.70;;;;;;;1.41;93.91;99099.73;102311;1316;138579;-75
2022/11/28 03:33:36;;;;;;;40.40;22.30;;;;;;;1.38;93.68;99103.52;102491;1316;22628;-75
2022/11/28 03:36:09;;;;;;;45.00;23.10;;;;;;;1.35;93.80;99103.83;102415;1300;140166;-75
2022/11/28 03:38:41;;;;;;;42.80;23.00;;;;;;;1.35;94.21;99101.27;102533;1300;25288;-75
2022/11/28 03:41:17;;;;;;;45.40;22.40;;;;;;;1.36;94.12;99096.52;102625;1300;22571;-75
2022/11/28 03:43:56;;;;;;;43.90;22.90;;;;;;;1.37;93.95;99096.27;102832;1295;138193;-76
2022/11/28 03:46:30;;;;;;;41.60;20.90;;;;;;;1.35;93.97;99100.23;102986;1296;22438;-76
2022/11/28 03:48:58;;;;;;;44.10;22.40;;;;;;;1.35;94.09;99094.89;102927;1313;138283;-76
2022/11/28 03:51:54;;;;;;;44.60;23.70;;;;;;;1.34;94.14;99093.35;103005;1288;25247;-75
2022/11/28 03:54:40;;;;;;;43.20;20.80;;;;;;;1.33;94.03;99090.45;103107;1286;138244;-75
2022/11/28 03:57:14;;;;;;;43.10;23.10;;;;;;;1.31;94.19;99089.00;103137;1295;25782;-76
2022/11/28 03:59:46;;;;;;;42.60;21.70;;;;;;;1.31;94.24;99089.40;103256;1288;22946;-75
2022/11/28 04:02:25;;;;;;;39.30;22.50;;;;;;;1.31;94.22;99084.55;103124;1304;23052;-75
2022/11/28 04:05:10;;;;;;;42.30;21.10;;;;;;;1.31;94.14;99089.91;103518;1305;25214;-75
2022/11/28 04:07:50;;;;;;;37.90;20.00;;;;;;;1.32;94.09;99087.48;103111;1301;139213;-75
2022/11/28 04:10:37;;;;;;;43.80;22.00;;;;;;;1.32;94.14;99082.50;103395;1285;22574;-76
2022/11/28 04:13:22;;;;;;;41.00;20.80;;;;;;;1.29;94.10;99078.83;103180;1286;138297;-76
2022/11/28 04:16:12;;;;;;;42.90;21.40;;;;;;;1.31;94.16;99087.39;103174;1301;22529;-75
2022/11/28 04:19:18;;;;;;;41.20;20.50;;;;;;;1.30;94.20;99084.61;103263;1306;138711;-75
2022/11/28 04:21:49;;;;;;;43.00;21.90;;;;;;;1.32;94.23;99087.11;103002;1296;22477;-75
2022/11/28 04:24:27;;;;;;;42.80;21.00;;;;;;;1.33;94.15;99087.92;102910;1310;138737;-75
2022/11/28 04:26:59;;;;;;;41.60;21.60;;;;;;;1.33;94.15;99083.20;103439;1295;24320;-75
2022/11/28 04:29:32;;;;;;;41.30;21.80;;;;;;;1.33;94.18;99080.88;103096;1285;22490;-75
2022/11/28 04:32:01;;;;;;;41.80;21.40;;;;;;;1.33;94.18;99077.98;103091;1295;137915;-75
2022/11/28 04:34:29;;;;;;;41.70;21.10;;;;;;;1.35;94.25;99077.19;103128;1313;24352;-75
2022/11/28 04:37:00;;;;;;;38.30;20.90;;;;;;;1.36;94.10;99079.56;102932;1293;138162;-75
2022/11/28 04:39:31;;;;;;;43.30;21.90;;;;;;;1.37;94.34;99079.13;103277;1298;23908;-75
2022/11/28 04:42:03;;;;;;;39.40;19.20;;;;;;;1.36;94.06;99076.07;103297;1287;138472;-76
2022/11/28 04:44:39;;;;;;;41.40;20.20;;;;;;;1.36;93.96;99074.54;103271;1294;23169;-76
2022/11/28 04:47:06;;;;;;;39.00;20.50;;;;;;;1.35;94.07;99069.27;103080;1311;24430;-76
2022/11/28 04:49:33;;;;;;;42.90;21.00;;;;;;;1.35;94.08;99065.55;103067;1292;138152;-75
2022/11/28 04:52:03;;;;;;;36.00;18.90;;;;;;;1.35;93.93;99063.93;103022;1303;22468;-75
2022/11/28 04:55:04;;;;;;;36.80;20.30;;;;;;;1.34;94.02;99063.10;103137;1308;138051;-75
2022/11/28 04:57:37;;;;;;;40.20;19.50;;;;;;;1.32;94.06;99063.64;103002;1311;22946;-75
2022/11/28 05:00:08;;;;;;;39.10;18.30;;;;;;;1.34;94.08;99068.67;102958;1301;138210;-75
2022/11/28 05:02:37;;;;;;;37.20;19.20;;;;;;;1.33;94.05;99063.22;103284;1303;23016;-75
2022/11/28 05:05:15;;;;;;;37.50;20.10;;;;;;;1.31;93.83;99063.78;103095;1310;22653;-75
2022/11/28 05:07:42;;;;;;;39.50;18.80;;;;;;;1.29;93.85;99064.16;103397;1311;138220;-76
2022/11/28 05:10:11;;;;;;;35.60;19.30;;;;;;;1.30;94.13;99061.27;103217;1285;25306;-75
2022/11/28 05:12:39;;;;;;;38.30;18.70;;;;;;;1.30;94.15;99060.33;103068;1308;138045;-75
2022/11/28 05:15:07;;;;;;;39.70;21.20;;;;;;;1.30;94.11;99066.06;103150;1295;23107;-75
2022/11/28 05:17:34;;;;;;;34.10;18.80;;;;;;;1.30;94.17;99067.06;103324;1287;23264;-75
2022/11/28 05:20:01;;;;;;;34.10;18.80;;;;;;;1.31;94.00;99069.91;103054;1296;137964;-75
2022/11/28 05:22:28;;;;;;;37.20;19.30;;;;;;;1.30;94.01;99072.55;103240;1309;24449;-76
2022/11/28 05:24:55;;;;;;;34.10;18.70;;;;;;;1.30;93.96;99070.19;103182;1305;138062;-75
2022/11/28 05:27:21;;;;;;;36.00;19.60;;;;;;;1.31;94.10;99064.02;103318;1288;22628;-76
2022/11/28 05:29:48;;;;;;;35.00;17.70;;;;;;;1.33;94.20;99064.29;102944;1309;138299;-75
2022/11/28 05:32:15;;;;;;;35.30;18.60;;;;;;;1.34;94.06;99060.05;103092;1294;24320;-75
2022/11/28 05:34:42;;;;;;;31.20;16.70;;;;;;;1.36;94.04;99066.36;103241;1292;22614;-75
2022/11/28 05:37:09;;;;;;;33.20;17.80;;;;;;;1.36;93.91;99065.44;103009;1298;138158;-75
2022/11/28 05:39:36;;;;;;;32.10;17.60;;;;;;;1.35;93.77;99063.40;103091;1285;22537;-75
2022/11/28 05:42:03;;;;;;;32.30;17.80;;;;;;;1.34;93.77;99062.90;103003;1291;141141;-76
2022/11/28 05:44:30;;;;;;;33.50;16.00;;;;;;;1.34;93.74;99066.69;103177;1285;24291;-75
2022/11/28 05:46:57;;;;;;;33.60;17.00;;;;;;;1.33;93.66;99065.06;103073;1301;22500;-75
2022/11/28 05:49:25;;;;;;;33.40;17.90;;;;;;;1.32;93.75;99067.82;102955;1309;138303;-75
2022/11/28 05:51:52;;;;;;;32.10;18.10;;;;;;;1.33;93.98;99073.23;102984;1307;22480;-75
2022/11/28 05:54:18;;;;;;;35.20;17.20;;;;;;;1.36;94.11;99072.09;103134;1301;138621;-75
2022/11/28 05:56:45;;;;;;;31.60;17.70;;;;;;;1.38;94.08;99068.61;103091;1308;24257;-75
2022/11/28 05:59:12;;;;;;;32.80;16.90;;;;;;;1.38;93.78;99063.45;103015;1292;22597;-75
2022/11/28 06:01:39;;;;;;;29.00;15.90;;;;;;;1.37;93.51;99061.62;103184;1296;139261;-75
2022/11/28 06:04:06;;;;;;;29.80;16.80;;;;;;;1.36;93.75;99062.20;103109;1302;26937;-75
2022/11/28 06:06:34;;;;;;;31.90;17.80;;;;;;;1.35;93.58;99059.64;103173;1286;138152;-75
2022/11/28 06:09:03;;;;;;;31.30;17.50;;;;;;;1.35;93.70;99062.33;103010;1310;22598;-75
2022/11/28 06:11:31;;;;;;;34.30;17.80;;;;;;;1.34;93.59;99060.29;103035;1298;22501;-75
2022/11/28 06:13:59;;;;;;;30.60;16.90;;;;;;;1.34;93.58;99059.38;103051;1297;138088;-75
2022/11/28 06:16:28;;;;;;;33.50;17.30;;;;;;;1.33;93.38;99059.69;103116;1302;22491;-75
2022/11/28 06:18:57;;;;;;;33.60;17.60;;;;;;;1.31;93.48;99057.48;103094;1301;138059;-75
2022/11/28 06:21:26;;;;;;;31.40;16.40;;;;;;;1.31;93.51;99057.55;103495;1292;24253;-75
2022/11/28 06:23:57;;;;;;;33.30;16.90;;;;;;;1.31;93.44;99059.85;103092;1301;138266;-75
2022/11/28 06:26:26;;;;;;;31.70;17.50;;;;;;;1.30;93.52;99063.48;103399;1286;24295;-75
2022/11/28 06:28:54;;;;;;;31.90;16.20;;;;;;;1.31;93.56;99065.22;103185;1295;22483;-75
2022/11/28 06:31:24;;;;;;;31.50;16.70;;;;;;;1.33;93.91;99061.43;103441;1308;138099;-75
2022/11/28 06:33:50;;;;;;;34.60;17.00;;;;;;;1.35;93.97;99061.55;103739;1302;24379;-75
2022/11/28 06:36:19;;;;;;;34.10;17.40;;;;;;;1.38;93.99;99063.77;103203;1302;139403;-75
2022/11/28 06:38:46;;;;;;;27.60;15.70;;;;;;;1.38;93.65;99064.52;103450;1310;22478;-75
2022/11/28 06:41:17;;;;;;;31.70;16.70;;;;;;;1.38;93.55;99065.35;103673;1294;22811;-75
2022/11/28 06:43:44;;;;;;;33.50;17.20;;;;;;;1.39;93.54;99066.69;103395;1288;139253;-75
2022/11/28 06:46:17;;;;;;;36.60;18.00;;;;;;;1.39;93.38;99063.09;103531;1310;22524;-75
2022/11/28 06:48:46;;;;;;;32.30;16.00;;;;;;;1.41;93.35;99062.32;103384;1288;138152;-75
2022/11/28 06:51:13;;;;;;;33.10;17.00;;;;;;;1.42;93.46;99061.59;103985;1288;22564;-76
2022/11/28 06:53:40;;;;;;;31.60;16.20;;;;;;;1.42;93.26;99061.17;104064;1313;22476;-76
2022/11/28 06:56:11;;;;;;;33.00;16.30;;;;;;;1.44;93.36;99064.86;103251;1310;137863;-75
2022/11/28 06:58:39;;;;;;;35.10;17.20;;;;;;;1.48;93.52;99061.23;103613;1308;25291;-76
2022/11/28 07:01:15;;;;;;;30.80;17.00;;;;;;;1.51;93.46;99057.46;103182;1291;138155;-76
2022/11/28 07:03:43;;;;;;;32.00;16.20;;;;;;;1.54;93.28;99058.54;103385;1298;22496;-76
2022/11/28 07:06:12;;;;;;;32.30;16.50;;;;;;;1.58;93.39;99059.09;103228;1302;138791;-75
2022/11/28 07:08:39;;;;;;;32.40;17.20;;;;;;;1.61;93.42;99058.48;103541;1294;22529;-75
2022/11/28 07:11:10;;;;;;;30.30;16.20;;;;;;;1.63;93.08;99058.66;103637;1295;25335;-75
2022/11/28 07:13:38;;;;;;;31.10;16.90;;;;;;;1.62;92.94;99056.43;103043;1288;138185;-75
2022/11/28 07:16:06;;;;;;;31.50;16.80;;;;;;;1.63;92.98;99054.34;103372;1310;24370;-75
2022/11/28 07:18:33;;;;;;;32.30;16.20;;;;;;;1.64;93.05;99053.50;103305;1310;138763;-75
2022/11/28 07:21:01;;;;;;;30.80;16.80;;;;;;;1.65;93.06;99050.01;103544;1284;22485;-75
2022/11/28 07:23:28;;;;;;;28.80;15.20;;;;;;;1.66;93.02;99052.31;104651;1288;25370;-75
2022/11/28 07:26:00;;;;;;;28.90;15.50;;;;;;;1.72;93.49;99054.19;104479;1286;138423;-76
2022/11/28 07:28:28;;;;;;;29.90;15.50;;;;;;;1.76;93.20;99049.86;104272;1286;22510;-76
2022/11/28 07:31:17;;;;;;;31.60;16.00;;;;;;;1.79;92.99;99045.38;103293;1307;138119;-76
2022/11/28 07:33:47;;;;;;;28.10;14.90;;;;;;;1.80;92.69;99044.55;105104;1295;26157;-75
2022/11/28 07:36:18;;;;;;;27.50;14.60;;;;;;;1.80;92.36;99046.40;103031;1297;138218;-76
2022/11/28 07:38:47;;;;;;;25.10;14.50;;;;;;;1.79;92.28;99046.06;103414;1297;22679;-75
2022/11/28 07:41:14;;;;;;;29.60;14.90;;;;;;;1.82;93.10;99042.86;103895;1295;22516;-76
2022/11/28 07:43:44;;;;;;;28.00;13.90;;;;;;;1.90;93.01;99043.61;103642;1307;138454;-75
2022/11/28 07:46:14;;;;;;;24.80;13.20;;;;;;;1.93;92.40;99046.38;103289;1304;22560;-75
2022/11/28 07:48:42;;;;;;;25.40;13.70;;;;;;;1.95;92.31;99042.36;103178;1310;140002;-75
2022/11/28 07:51:15;;;;;;;27.10;13.70;;;;;;;1.95;92.21;99039.61;103244;1291;22477;-75
2022/11/28 07:53:43;;;;;;;25.20;13.30;;;;;;;1.98;92.32;99038.35;103399;1286;22488;-75
2022/11/28 07:56:14;;;;;;;27.40;14.40;;;;;;;2.01;92.14;99039.33;103133;1295;138216;-76
2022/11/28 07:58:44;;;;;;;22.90;13.00;;;;;;;2.00;91.70;99040.16;103227;1285;23076;-75
2022/11/28 08:01:17;;;;;;;22.20;12.00;;;;;;;1.99;91.47;99040.45;103365;1310;139949;-75
2022/11/28 08:03:45;;;;;;;25.10;12.80;;;;;;;2.00;91.62;99040.26;103326;1301;22516;-76
2022/11/28 08:06:15;;;;;;;27.60;12.50;;;;;;;2.00;91.40;99041.21;104106;1298;140850;-76
2022/11/28 08:08:43;;;;;;;23.20;12.50;;;;;;;2.01;91.61;99040.94;104588;1296;23261;-76
2022/11/28 08:11:10;;;;;;;19.60;12.00;;;;;;;2.04;91.73;99040.37;104090;1294;22508;-76
2022/11/28 08:13:38;;;;;;;20.00;11.10;;;;;;;2.07;91.41;99036.50;103298;1313;138882;-75
2022/11/28 08:16:08;;;;;;;21.20;11.80;;;;;;;2.09;91.39;99038.34;103944;1289;23066;-76
2022/11/28 08:18:35;;;;;;;24.80;12.90;;;;;;;2.13;91.29;99039.67;103269;1310;138404;-75
2022/11/28 08:21:07;;;;;;;22.00;11.60;;;;;;;2.16;91.35;99033.80;103890;1285;25270;-76
2022/11/28 08:23:35;;;;;;;20.60;11.70;;;;;;;2.20;91.24;99040.66;103852;1282;24218;-76
2022/11/28 08:26:04;;;;;;;26.20;13.50;;;;;;;2.23;90.93;99041.77;103539;1279;138087;-75
2022/11/28 08:28:32;;;;;;;22.10;12.60;;;;;;;2.27;91.14;99042.81;103636;1296;24471;-75
2022/11/28 08:31:00;;;;;;;21.10;11.80;;;;;;;2.30;90.78;99042.99;103070;1296;138306;-75
2022/11/28 08:33:27;;;;;;;23.10;11.90;;;;;;;2.33;90.79;99041.20;103431;1295;22688;-75
2022/11/28 08:35:54;;;;;;;20.90;11.90;;;;;;;2.38;90.75;99041.73;103175;1298;138277;-76
2022/11/28 08:38:21;;;;;;;23.30;11.90;;;;;;;2.43;90.91;99041.12;103956;1291;25445;-75
2022/11/28 08:40:48;;;;;;;21.80;11.90;;;;;;;2.46;90.42;99038.55;103347;1310;22516;-75
2022/11/28 08:43:15;;;;;;;20.20;11.60;;;;;;;2.48;89.95;99033.02;103724;1310;138113;-76
2022/11/28 08:45:43;;;;;;;21.30;11.40;;;;;;;2.51;89.88;99031.57;103527;1286;22511;-76
2022/11/28 08:48:10;;;;;;;24.80;12.50;;;;;;;2.54;89.92;99031.64;103462;1296;138579;-75
2022/11/28 08:50:37;;;;;;;21.20;12.10;;;;;;;2.58;90.09;99032.19;103432;1289;22476;-75
2022/11/28 08:53:04;;;;;;;18.50;10.90;;;;;;;2.62;89.84;99028.16;103715;1302;23722;-76
2022/11/28 08:55:31;;;;;;;24.00;12.10;;;;;;;2.63;89.20;99029.86;103531;1286;138238;-76
2022/11/28 08:57:58;;;;;;;22.10;11.50;;;;;;;2.65;89.30;99030.65;103483;1302;22484;-75
2022/11/28 09:00:25;;;;;;;19.50;10.60;;;;;;;2.69;89.32;99024.72;103046;1292;138247;-76
2022/11/28 09:02:51;;;;;;;21.00;11.10;;;;;;;2.71;89.18;99024.26;103225;1290;25258;-75
2022/11/28 09:05:19;;;;;;;19.80;11.40;;;;;;;2.74;88.97;99020.84;103134;1303;22532;-75
2022/11/28 09:07:46;;;;;;;19.20;11.20;;;;;;;2.78;89.13;99021.81;103177;1296;138088;-75
2022/11/28 09:10:12;;;;;;;20.90;12.30;;;;;;;2.81;88.73;99015.13;103198;1286;22519;-75
2022/11/28 09:12:39;;;;;;;22.50;12.30;;;;;;;2.84;88.62;99012.27;104079;1285;138084;-74
2022/11/28 09:15:07;;;;;;;21.10;11.20;;;;;;;2.87;88.22;99003.35;106716;1303;22264;-74
2022/11/28 09:17:34;;;;;;;21.90;11.60;;;;;;;2.91;88.27;99002.59;103536;1298;25327;-74
2022/11/28 09:20:00;;;;;;;22.20;11.80;;;;;;;2.96;88.16;99006.52;104608;1285;138808;-75
2022/11/28 09:22:28;;;;;;;19.50;10.40;;;;;;;3.01;88.00;98998.39;103367;1288;25328;-74
2022/11/28 09:24:55;;;;;;;21.20;10.60;;;;;;;3.04;87.72;98996.98;103020;1304;138812;-74
2022/11/28 09:27:21;;;;;;;18.80;11.00;;;;;;;3.07;87.52;98990.91;103663;1301;25348;-73
2022/11/28 09:29:48;;;;;;;24.30;12.00;;;;;;;3.10;87.46;98990.75;103404;1286;22476;-74
2022/11/28 09:32:15;;;;;;;20.30;10.60;;;;;;;3.15;87.61;98987.85;103542;1278;138033;-74
2022/11/28 09:34:42;;;;;;;19.70;10.50;;;;;;;3.21;87.66;98984.30;103415;1286;23914;-74
2022/11/28 09:37:09;;;;;;;19.80;11.20;;;;;;;3.28;87.81;98984.14;103023;1285;139371;-74
2022/11/28 09:39:36;;;;;;;21.10;10.60;;;;;;;3.35;87.60;98980.64;103460;1288;22513;-74
2022/11/28 09:42:22;;;;;;;18.90;10.70;;;;;;;3.42;87.63;98978.29;103219;1288;139061;-74
2022/11/28 09:44:59;;;;;;;17.80;10.10;;;;;;;3.46;86.96;98974.73;103268;1278;22928;-74
2022/11/28 09:47:33;;;;;;;19.30;10.80;;;;;;;3.49;86.92;98972.76;103289;1289;22612;-74
2022/11/28 09:50:09;;;;;;;20.80;10.60;;;;;;;3.54;86.51;98967.02;103047;1311;138611;-74
2022/11/28 09:52:45;;;;;;;17.10;10.50;;;;;;;3.58;86.70;98968.27;103919;1289;23249;-74
2022/11/28 09:55:42;;;;;;;19.00;10.60;;;;;;;3.60;86.28;98966.19;103513;1289;138208;-74
2022/11/28 09:58:36;;;;;;;17.40;9.70;;;;;;;3.67;86.23;98962.66;103145;1295;22479;-75
2022/11/28 10:01:26;;;;;;;17.10;9.90;;;;;;;3.71;85.78;98958.82;103163;1310;137974;-74
2022/11/28 10:04:09;;;;;;;17.60;10.70;;;;;;;3.74;85.56;98955.80;103308;1304;25317;-74
2022/11/28 10:07:06;;;;;;;16.10;9.40;;;;;;;3.79;85.50;98952.59;103117;1310;138232;-74
2022/11/28 10:09:33;;;;;;;19.40;10.80;;;;;;;3.85;85.71;98949.79;103104;1310;22525;-74
2022/11/28 10:12:06;;;;;;;16.90;9.60;;;;;;;3.91;85.49;98947.58;103080;1310;138268;-74
2022/11/28 10:14:36;;;;;;;19.70;10.40;;;;;;;3.96;85.32;98941.54;103345;1295;22497;-75
2022/11/28 10:17:31;;;;;;;21.00;10.40;;;;;;;4.03;85.33;98939.63;103815;1286;22489;-74
2022/11/28 10:20:01;;;;;;;19.50;10.00;;;;;;;4.09;84.89;98937.04;103118;1305;138091;-74
2022/11/28 10:22:46;;;;;;;17.70;10.50;;;;;;;4.14;84.91;98940.00;104117;1285;22539;-74
2022/11/28 10:25:18;;;;;;;18.50;10.40;;;;;;;4.23;84.83;98942.00;102960;1303;139341;-74
2022/11/28 10:27:47;;;;;;;17.10;10.30;;;;;;;4.28;84.46;98940.27;103039;1286;22500;-74
2022/11/28 10:30:19;;;;;;;17.60;10.40;;;;;;;4.31;84.09;98936.77;103122;1310;138270;-74
2022/11/28 10:33:00;;;;;;;16.90;10.60;;;;;;;4.35;83.70;98937.75;103338;1310;22550;-74
2022/11/28 10:35:31;;;;;;;17.20;9.60;;;;;;;4.40;83.86;98937.13;103230;1286;25214;-74
2022/11/28 10:37:58;;;;;;;16.00;9.90;;;;;;;4.48;83.87;98935.55;104206;1286;139847;-75
2022/11/28 10:40:40;;;;;;;16.70;9.90;;;;;;;4.56;83.51;98932.55;103644;1286;24263;-74
2022/11/28 10:43:28;;;;;;;17.20;9.60;;;;;;;4.64;83.57;98930.37;103326;1298;137994;-74
2022/11/28 10:46:13;;;;;;;16.10;9.80;;;;;;;4.71;82.69;98927.06;103241;1305;22707;-74
2022/11/28 10:48:50;;;;;;;21.70;10.60;;;;;;;4.73;82.42;98925.21;103305;1289;138156;-74
2022/11/28 10:51:24;;;;;;;17.00;9.20;;;;;;;4.77;82.65;98926.53;104207;1295;22485;-74
2022/11/28 10:54:08;;;;;;;17.00;9.40;;;;;;;4.82;82.33;98919.45;105158;1285;25203;-74
2022/11/28 10:57:14;;;;;;;18.70;9.90;;;;;;;4.82;81.52;98908.97;104503;1286;22397;-74
2022/11/28 11:00:19;;;;;;;15.00;8.90;;;;;;;4.84;81.81;98908.52;104677;1295;24318;-75
2022/11/28 11:02:53;;;;;;;17.70;9.50;;;;;;;4.88;81.54;98904.77;102356;1302;23088;-74
2022/11/28 11:05:27;;;;;;;16.50;9.50;;;;;;;4.90;81.08;98900.09;102512;1297;24237;-75
2022/11/28 11:07:57;;;;;;;16.10;9.60;;;;;;;4.87;80.73;98893.64;102606;1304;138375;-74
2022/11/28 11:10:46;;;;;;;18.20;9.90;;;;;;;4.83;80.26;98893.73;103128;1290;22508;-75
2022/11/28 11:13:31;;;;;;;16.80;9.40;;;;;;;4.80;80.79;98895.05;102969;1301;138988;-74
2022/11/28 11:16:02;;;;;;;14.00;8.80;;;;;;;4.84;80.90;98891.66;102393;1319;22500;-74
2022/11/28 11:18:34;;;;;;;15.30;9.80;;;;;;;4.85;80.53;98888.31;102401;1309;138089;-74
2022/11/28 11:21:07;;;;;;;14.90;8.50;;;;;;;4.86;80.47;98889.56;102414;1297;22768;-74
2022/11/28 11:23:34;;;;;;;12.80;8.10;;;;;;;4.88;80.57;98887.25;102322;1297;22510;-74
2022/11/28 11:26:01;;;;;;;15.60;8.90;;;;;;;4.89;80.22;98889.91;102130;1319;137741;-74
2022/11/28 11:28:30;;;;;;;18.40;9.60;;;;;;;4.90;80.13;98887.52;102215;1319;22502;-74
2022/11/28 11:31:03;;;;;;;18.10;9.20;;;;;;;4.90;80.27;98885.69;102156;1319;138807;-74
2022/11/28 11:33:36;;;;;;;19.20;9.40;;;;;;;4.91;80.09;98884.20;102552;1311;22504;-74
2022/11/28 11:36:18;;;;;;;14.80;8.90;;;;;;;4.92;80.24;98886.44;102489;1311;138178;-74
2022/11/28 11:38:45;;;;;;;16.60;9.90;;;;;;;4.95;80.03;98885.02;103307;1302;24405;-74
2022/11/28 11:41:24;;;;;;;17.90;9.60;;;;;;;4.97;79.98;98888.94;103130;1307;24330;-74